sensor_id;sensor_type;location;lat;lon;timestamp;P1;durP1;ratioP1;P2;durP2;ratioP2
32200;SDS011;18701;45.588;5.288;2023-04-16T00:00:16;1.15;;;0.30;;
32200;SDS011;18701;45.588;5.288;2023-04-16T00:02:41;4.22;;;0.38;;
32200;SDS011;18701;45.588;5.288;2023-04-16T00:05:07;1.13;;;0.30;;
32200;SDS011;18701;45.588;5.288;2023-04-16T00:07:33;1.65;;;0.30;;
32200;SDS011;18701;45.588;5.288;2023-04-16T00:09:58;3.22;;;0.55;;
32200;SDS011;18701;45.588;5.288;2023-04-16T00:12:24;3.97;;;0.60;;
32200;SDS011;18701;45.588;5.288;2023-04-16T00:14:50;3.45;;;0.47;;
32200;SDS011;18701;45.588;5.288;2023-04-16T00:17:15;0.85;;;0.30;;
32200;SDS011;18701;45.588;5.288;2023-04-16T00:19:41;2.95;;;0.50;;
32200;SDS011;18701;45.588;5.288;2023-04-16T00:22:06;3.92;;;0.52;;
32200;SDS011;18701;45.588;5.288;2023-04-16T00:24:32;4.53;;;0.32;;
32200;SDS011;18701;45.588;5.288;2023-04-16T00:26:58;1.95;;;0.30;;
32200;SDS011;18701;45.588;5.288;2023-04-16T00:29:23;3.42;;;0.40;;
32200;SDS011;18701;45.588;5.288;2023-04-16T00:31:49;1.02;;;0.50;;
32200;SDS011;18701;45.588;5.288;2023-04-16T00:34:15;1.77;;;0.50;;
32200;SDS011;18701;45.588;5.288;2023-04-16T00:36:40;1.30;;;0.50;;
32200;SDS011;18701;45.588;5.288;2023-04-16T00:39:06;4.03;;;0.70;;
32200;SDS011;18701;45.588;5.288;2023-04-16T00:41:31;1.38;;;0.43;;
32200;SDS011;18701;45.588;5.288;2023-04-16T00:43:57;2.13;;;0.40;;
32200;SDS011;18701;45.588;5.288;2023-04-16T00:46:23;3.42;;;0.50;;
32200;SDS011;18701;45.588;5.288;2023-04-16T00:48:49;4.00;;;0.60;;
32200;SDS011;18701;45.588;5.288;2023-04-16T00:51:17;1.67;;;0.82;;
32200;SDS011;18701;45.588;5.288;2023-04-16T00:53:45;3.38;;;0.50;;
32200;SDS011;18701;45.588;5.288;2023-04-16T00:56:11;3.00;;;0.55;;
32200;SDS011;18701;45.588;5.288;2023-04-16T00:58:37;1.45;;;0.30;;
32200;SDS011;18701;45.588;5.288;2023-04-16T01:01:03;6.32;;;0.60;;
32200;SDS011;18701;45.588;5.288;2023-04-16T01:03:42;8.13;;;0.45;;
32200;SDS011;18701;45.588;5.288;2023-04-16T01:06:09;2.25;;;0.47;;
32200;SDS011;18701;45.588;5.288;2023-04-16T01:08:35;2.35;;;0.40;;
32200;SDS011;18701;45.588;5.288;2023-04-16T01:11:01;1.80;;;0.50;;
32200;SDS011;18701;45.588;5.288;2023-04-16T01:13:27;3.13;;;0.55;;
32200;SDS011;18701;45.588;5.288;2023-04-16T01:15:53;1.65;;;0.60;;
32200;SDS011;18701;45.588;5.288;2023-04-16T01:18:19;1.45;;;0.50;;
32200;SDS011;18701;45.588;5.288;2023-04-16T01:20:46;1.92;;;0.80;;
32200;SDS011;18701;45.588;5.288;2023-04-16T01:23:12;3.17;;;0.50;;
32200;SDS011;18701;45.588;5.288;2023-04-16T01:25:38;4.05;;;0.60;;
32200;SDS011;18701;45.588;5.288;2023-04-16T01:28:04;1.52;;;0.50;;
32200;SDS011;18701;45.588;5.288;2023-04-16T01:30:31;1.38;;;0.63;;
32200;SDS011;18701;45.588;5.288;2023-04-16T01:32:57;2.65;;;0.55;;
32200;SDS011;18701;45.588;5.288;2023-04-16T01:35:23;3.42;;;0.50;;
32200;SDS011;18701;45.588;5.288;2023-04-16T01:37:49;1.52;;;0.73;;
32200;SDS011;18701;45.588;5.288;2023-04-16T01:40:15;2.90;;;0.50;;
32200;SDS011;18701;45.588;5.288;2023-04-16T01:42:41;2.33;;;0.63;;
32200;SDS011;18701;45.588;5.288;2023-04-16T01:45:07;2.05;;;0.60;;
32200;SDS011;18701;45.588;5.288;2023-04-16T01:47:33;3.75;;;1.00;;
32200;SDS011;18701;45.588;5.288;2023-04-16T01:49:59;3.75;;;0.70;;
32200;SDS011;18701;45.588;5.288;2023-04-16T01:52:26;3.38;;;0.52;;
32200;SDS011;18701;45.588;5.288;2023-04-16T01:54:51;1.27;;;0.75;;
32200;SDS011;18701;45.588;5.288;2023-04-16T01:57:17;1.63;;;1.10;;
32200;SDS011;18701;45.588;5.288;2023-04-16T01:59:42;5.90;;;0.98;;
32200;SDS011;18701;45.588;5.288;2023-04-16T02:02:09;2.95;;;1.20;;
32200;SDS011;18701;45.588;5.288;2023-04-16T02:04:39;3.70;;;1.40;;
32200;SDS011;18701;45.588;5.288;2023-04-16T02:07:06;4.65;;;1.70;;
32200;SDS011;18701;45.588;5.288;2023-04-16T02:09:38;6.95;;;1.70;;
32200;SDS011;18701;45.588;5.288;2023-04-16T02:12:05;2.35;;;1.60;;
32200;SDS011;18701;45.588;5.288;2023-04-16T02:14:31;4.65;;;1.85;;
32200;SDS011;18701;45.588;5.288;2023-04-16T02:16:58;5.88;;;1.83;;
32200;SDS011;18701;45.588;5.288;2023-04-16T02:19:26;4.68;;;1.95;;
32200;SDS011;18701;45.588;5.288;2023-04-16T02:21:52;3.13;;;1.85;;
32200;SDS011;18701;45.588;5.288;2023-04-16T02:24:19;3.42;;;1.63;;
32200;SDS011;18701;45.588;5.288;2023-04-16T02:26:45;5.40;;;2.00;;
32200;SDS011;18701;45.588;5.288;2023-04-16T02:29:11;6.35;;;2.00;;
32200;SDS011;18701;45.588;5.288;2023-04-16T02:31:37;4.75;;;2.35;;
32200;SDS011;18701;45.588;5.288;2023-04-16T02:34:03;8.00;;;2.38;;
32200;SDS011;18701;45.588;5.288;2023-04-16T02:36:30;4.88;;;2.78;;
32200;SDS011;18701;45.588;5.288;2023-04-16T02:38:56;7.45;;;2.90;;
32200;SDS011;18701;45.588;5.288;2023-04-16T02:41:22;8.02;;;3.10;;
32200;SDS011;18701;45.588;5.288;2023-04-16T02:43:48;3.78;;;2.40;;
32200;SDS011;18701;45.588;5.288;2023-04-16T02:46:14;4.13;;;2.92;;
32200;SDS011;18701;45.588;5.288;2023-04-16T02:48:39;5.28;;;3.25;;
32200;SDS011;18701;45.588;5.288;2023-04-16T02:51:05;5.05;;;3.72;;
32200;SDS011;18701;45.588;5.288;2023-04-16T02:53:30;6.80;;;3.33;;
32200;SDS011;18701;45.588;5.288;2023-04-16T02:55:56;7.75;;;3.75;;
32200;SDS011;18701;45.588;5.288;2023-04-16T02:58:23;4.85;;;3.25;;
32200;SDS011;18701;45.588;5.288;2023-04-16T03:00:50;4.60;;;3.28;;
32200;SDS011;18701;45.588;5.288;2023-04-16T03:03:19;6.22;;;4.13;;
32200;SDS011;18701;45.588;5.288;2023-04-16T03:05:45;10.20;;;4.32;;
32200;SDS011;18701;45.588;5.288;2023-04-16T03:08:11;6.03;;;3.85;;
32200;SDS011;18701;45.588;5.288;2023-04-16T03:10:36;13.27;;;3.92;;
32200;SDS011;18701;45.588;5.288;2023-04-16T03:13:02;10.30;;;4.30;;
32200;SDS011;18701;45.588;5.288;2023-04-16T03:15:29;12.70;;;5.00;;
32200;SDS011;18701;45.588;5.288;2023-04-16T03:17:55;9.43;;;4.70;;
32200;SDS011;18701;45.588;5.288;2023-04-16T03:20:21;9.23;;;4.60;;
32200;SDS011;18701;45.588;5.288;2023-04-16T03:22:46;9.18;;;4.82;;
32200;SDS011;18701;45.588;5.288;2023-04-16T03:25:13;9.68;;;5.22;;
32200;SDS011;18701;45.588;5.288;2023-04-16T03:27:39;8.55;;;4.70;;
32200;SDS011;18701;45.588;5.288;2023-04-16T03:30:05;8.25;;;5.00;;
32200;SDS011;18701;45.588;5.288;2023-04-16T03:32:32;11.35;;;5.65;;
32200;SDS011;18701;45.588;5.288;2023-04-16T03:34:57;8.05;;;5.03;;
32200;SDS011;18701;45.588;5.288;2023-04-16T03:37:23;5.68;;;4.82;;
32200;SDS011;18701;45.588;5.288;2023-04-16T03:39:49;8.63;;;5.13;;
32200;SDS011;18701;45.588;5.288;2023-04-16T03:42:14;5.80;;;5.20;;
32200;SDS011;18701;45.588;5.288;2023-04-16T03:44:40;8.23;;;5.90;;
32200;SDS011;18701;45.588;5.288;2023-04-16T03:47:06;10.70;;;5.93;;
32200;SDS011;18701;45.588;5.288;2023-04-16T03:49:31;8.85;;;5.43;;
32200;SDS011;18701;45.588;5.288;2023-04-16T03:51:57;8.95;;;5.85;;
32200;SDS011;18701;45.588;5.288;2023-04-16T03:54:22;11.77;;;5.65;;
32200;SDS011;18701;45.588;5.288;2023-04-16T03:56:48;13.00;;;6.72;;
32200;SDS011;18701;45.588;5.288;2023-04-16T03:59:14;6.65;;;5.45;;
32200;SDS011;18701;45.588;5.288;2023-04-16T04:01:39;11.75;;;6.22;;
32200;SDS011;18701;45.588;5.288;2023-04-16T04:04:05;10.18;;;5.63;;
32200;SDS011;18701;45.588;5.288;2023-04-16T04:06:30;7.57;;;5.78;;
32200;SDS011;18701;45.588;5.288;2023-04-16T04:08:57;8.38;;;6.13;;
32200;SDS011;18701;45.588;5.288;2023-04-16T04:11:22;9.93;;;6.90;;
32200;SDS011;18701;45.588;5.288;2023-04-16T04:13:48;12.18;;;6.05;;
32200;SDS011;18701;45.588;5.288;2023-04-16T04:16:14;8.80;;;5.70;;
32200;SDS011;18701;45.588;5.288;2023-04-16T04:18:39;6.93;;;6.07;;
32200;SDS011;18701;45.588;5.288;2023-04-16T04:21:05;9.73;;;5.80;;
32200;SDS011;18701;45.588;5.288;2023-04-16T04:23:32;9.70;;;5.72;;
32200;SDS011;18701;45.588;5.288;2023-04-16T04:26:01;10.98;;;6.38;;
32200;SDS011;18701;45.588;5.288;2023-04-16T04:28:29;12.18;;;6.97;;
32200;SDS011;18701;45.588;5.288;2023-04-16T04:30:56;8.05;;;6.20;;
32200;SDS011;18701;45.588;5.288;2023-04-16T04:33:22;10.05;;;6.65;;
32200;SDS011;18701;45.588;5.288;2023-04-16T04:35:47;11.43;;;6.90;;
32200;SDS011;18701;45.588;5.288;2023-04-16T04:38:13;11.65;;;7.20;;
32200;SDS011;18701;45.588;5.288;2023-04-16T04:40:39;10.98;;;6.95;;
32200;SDS011;18701;45.588;5.288;2023-04-16T04:43:04;14.73;;;6.97;;
32200;SDS011;18701;45.588;5.288;2023-04-16T04:45:30;12.90;;;6.75;;
32200;SDS011;18701;45.588;5.288;2023-04-16T04:47:56;13.15;;;7.07;;
32200;SDS011;18701;45.588;5.288;2023-04-16T04:50:22;9.07;;;6.88;;
32200;SDS011;18701;45.588;5.288;2023-04-16T04:52:47;9.65;;;7.13;;
32200;SDS011;18701;45.588;5.288;2023-04-16T04:55:13;10.73;;;6.75;;
32200;SDS011;18701;45.588;5.288;2023-04-16T04:57:40;10.90;;;7.03;;
32200;SDS011;18701;45.588;5.288;2023-04-16T05:00:06;12.00;;;7.22;;
32200;SDS011;18701;45.588;5.288;2023-04-16T05:02:32;12.15;;;6.82;;
32200;SDS011;18701;45.588;5.288;2023-04-16T05:04:57;11.40;;;7.78;;
32200;SDS011;18701;45.588;5.288;2023-04-16T05:07:23;12.52;;;6.80;;
32200;SDS011;18701;45.588;5.288;2023-04-16T05:09:48;11.10;;;6.50;;
32200;SDS011;18701;45.588;5.288;2023-04-16T05:12:14;8.93;;;7.40;;
32200;SDS011;18701;45.588;5.288;2023-04-16T05:14:40;13.68;;;7.05;;
32200;SDS011;18701;45.588;5.288;2023-04-16T05:17:06;11.15;;;6.80;;
32200;SDS011;18701;45.588;5.288;2023-04-16T05:19:32;8.05;;;6.45;;
32200;SDS011;18701;45.588;5.288;2023-04-16T05:21:58;16.45;;;7.38;;
32200;SDS011;18701;45.588;5.288;2023-04-16T05:24:26;14.90;;;6.88;;
32200;SDS011;18701;45.588;5.288;2023-04-16T05:26:53;9.07;;;7.40;;
32200;SDS011;18701;45.588;5.288;2023-04-16T05:29:18;11.20;;;6.72;;
32200;SDS011;18701;45.588;5.288;2023-04-16T05:31:44;12.13;;;6.80;;
32200;SDS011;18701;45.588;5.288;2023-04-16T05:34:10;12.00;;;7.57;;
32200;SDS011;18701;45.588;5.288;2023-04-16T05:36:35;11.48;;;6.95;;
32200;SDS011;18701;45.588;5.288;2023-04-16T05:39:01;8.93;;;7.07;;
32200;SDS011;18701;45.588;5.288;2023-04-16T05:41:27;14.57;;;7.57;;
32200;SDS011;18701;45.588;5.288;2023-04-16T05:43:52;14.25;;;7.22;;
32200;SDS011;18701;45.588;5.288;2023-04-16T05:46:18;13.60;;;6.85;;
32200;SDS011;18701;45.588;5.288;2023-04-16T05:48:43;10.93;;;6.65;;
32200;SDS011;18701;45.588;5.288;2023-04-16T05:51:10;12.90;;;6.93;;
32200;SDS011;18701;45.588;5.288;2023-04-16T05:53:36;12.45;;;7.22;;
32200;SDS011;18701;45.588;5.288;2023-04-16T05:56:01;11.80;;;7.63;;
32200;SDS011;18701;45.588;5.288;2023-04-16T05:58:27;12.10;;;7.47;;
32200;SDS011;18701;45.588;5.288;2023-04-16T06:00:52;12.13;;;7.15;;
32200;SDS011;18701;45.588;5.288;2023-04-16T06:03:18;11.82;;;7.72;;
32200;SDS011;18701;45.588;5.288;2023-04-16T06:05:44;10.32;;;7.53;;
32200;SDS011;18701;45.588;5.288;2023-04-16T06:08:10;11.55;;;7.88;;
32200;SDS011;18701;45.588;5.288;2023-04-16T06:10:35;13.45;;;7.95;;
32200;SDS011;18701;45.588;5.288;2023-04-16T06:13:01;10.00;;;7.25;;
32200;SDS011;18701;45.588;5.288;2023-04-16T06:15:27;10.73;;;8.27;;
32200;SDS011;18701;45.588;5.288;2023-04-16T06:17:53;12.13;;;7.50;;
32200;SDS011;18701;45.588;5.288;2023-04-16T06:20:19;10.93;;;8.32;;
32200;SDS011;18701;45.588;5.288;2023-04-16T06:22:45;15.52;;;8.13;;
32200;SDS011;18701;45.588;5.288;2023-04-16T06:25:11;12.25;;;8.07;;
32200;SDS011;18701;45.588;5.288;2023-04-16T06:27:36;16.73;;;8.93;;
32200;SDS011;18701;45.588;5.288;2023-04-16T06:30:02;16.38;;;7.70;;
32200;SDS011;18701;45.588;5.288;2023-04-16T06:32:28;10.15;;;7.20;;
32200;SDS011;18701;45.588;5.288;2023-04-16T06:34:54;8.95;;;7.85;;
32200;SDS011;18701;45.588;5.288;2023-04-16T06:37:22;11.15;;;7.43;;
32200;SDS011;18701;45.588;5.288;2023-04-16T06:39:48;13.35;;;7.30;;
32200;SDS011;18701;45.588;5.288;2023-04-16T06:42:13;10.18;;;7.18;;
32200;SDS011;18701;45.588;5.288;2023-04-16T06:44:39;12.63;;;6.75;;
32200;SDS011;18701;45.588;5.288;2023-04-16T06:47:05;11.02;;;7.20;;
32200;SDS011;18701;45.588;5.288;2023-04-16T06:49:30;15.02;;;7.55;;
32200;SDS011;18701;45.588;5.288;2023-04-16T06:51:56;13.10;;;7.07;;
32200;SDS011;18701;45.588;5.288;2023-04-16T06:54:22;12.30;;;7.18;;
32200;SDS011;18701;45.588;5.288;2023-04-16T06:56:47;11.63;;;7.40;;
32200;SDS011;18701;45.588;5.288;2023-04-16T06:59:13;12.32;;;7.30;;
32200;SDS011;18701;45.588;5.288;2023-04-16T07:01:38;14.27;;;7.28;;
32200;SDS011;18701;45.588;5.288;2023-04-16T07:04:05;12.68;;;7.80;;
32200;SDS011;18701;45.588;5.288;2023-04-16T07:06:30;13.48;;;7.55;;
32200;SDS011;18701;45.588;5.288;2023-04-16T07:08:56;13.15;;;7.13;;
32200;SDS011;18701;45.588;5.288;2023-04-16T07:11:22;12.32;;;7.95;;
32200;SDS011;18701;45.588;5.288;2023-04-16T07:13:47;16.50;;;7.50;;
32200;SDS011;18701;45.588;5.288;2023-04-16T07:16:16;14.93;;;7.20;;
32200;SDS011;18701;45.588;5.288;2023-04-16T07:18:42;14.82;;;8.32;;
32200;SDS011;18701;45.588;5.288;2023-04-16T07:21:07;13.63;;;7.03;;
32200;SDS011;18701;45.588;5.288;2023-04-16T07:23:33;12.52;;;7.38;;
32200;SDS011;18701;45.588;5.288;2023-04-16T07:25:58;11.90;;;6.70;;
32200;SDS011;18701;45.588;5.288;2023-04-16T07:28:24;10.07;;;7.28;;
32200;SDS011;18701;45.588;5.288;2023-04-16T07:30:50;14.07;;;7.20;;
32200;SDS011;18701;45.588;5.288;2023-04-16T07:33:16;9.15;;;6.78;;
32200;SDS011;18701;45.588;5.288;2023-04-16T07:35:41;15.55;;;7.75;;
32200;SDS011;18701;45.588;5.288;2023-04-16T07:38:07;14.00;;;7.75;;
32200;SDS011;18701;45.588;5.288;2023-04-16T07:40:32;17.45;;;7.35;;
32200;SDS011;18701;45.588;5.288;2023-04-16T07:42:59;12.30;;;7.65;;
32200;SDS011;18701;45.588;5.288;2023-04-16T07:45:24;11.88;;;7.38;;
32200;SDS011;18701;45.588;5.288;2023-04-16T07:47:50;10.10;;;7.28;;
32200;SDS011;18701;45.588;5.288;2023-04-16T07:50:16;12.93;;;7.20;;
32200;SDS011;18701;45.588;5.288;2023-04-16T07:52:43;12.63;;;7.38;;
32200;SDS011;18701;45.588;5.288;2023-04-16T07:55:09;9.40;;;7.43;;
32200;SDS011;18701;45.588;5.288;2023-04-16T07:57:35;13.43;;;7.18;;
32200;SDS011;18701;45.588;5.288;2023-04-16T08:00:00;11.57;;;7.43;;
32200;SDS011;18701;45.588;5.288;2023-04-16T08:02:29;11.65;;;6.93;;
32200;SDS011;18701;45.588;5.288;2023-04-16T08:04:54;10.82;;;7.13;;
32200;SDS011;18701;45.588;5.288;2023-04-16T08:07:20;18.13;;;6.35;;
32200;SDS011;18701;45.588;5.288;2023-04-16T08:09:52;13.98;;;6.82;;
32200;SDS011;18701;45.588;5.288;2023-04-16T08:12:18;10.70;;;6.97;;
32200;SDS011;18701;45.588;5.288;2023-04-16T08:14:45;14.15;;;6.35;;
32200;SDS011;18701;45.588;5.288;2023-04-16T08:17:11;16.42;;;6.68;;
32200;SDS011;18701;45.588;5.288;2023-04-16T08:19:37;17.25;;;7.70;;
32200;SDS011;18701;45.588;5.288;2023-04-16T08:22:03;11.70;;;6.50;;
32200;SDS011;18701;45.588;5.288;2023-04-16T08:24:29;9.00;;;6.45;;
32200;SDS011;18701;45.588;5.288;2023-04-16T08:26:54;11.05;;;6.38;;
32200;SDS011;18701;45.588;5.288;2023-04-16T08:29:20;14.75;;;6.60;;
32200;SDS011;18701;45.588;5.288;2023-04-16T08:31:48;10.88;;;6.05;;
32200;SDS011;18701;45.588;5.288;2023-04-16T08:34:14;15.25;;;6.35;;
32200;SDS011;18701;45.588;5.288;2023-04-16T08:36:40;10.30;;;6.40;;
32200;SDS011;18701;45.588;5.288;2023-04-16T08:39:06;8.77;;;5.97;;
32200;SDS011;18701;45.588;5.288;2023-04-16T08:41:32;12.15;;;6.25;;
32200;SDS011;18701;45.588;5.288;2023-04-16T08:44:02;11.98;;;6.70;;
32200;SDS011;18701;45.588;5.288;2023-04-16T08:46:38;9.57;;;6.63;;
32200;SDS011;18701;45.588;5.288;2023-04-16T08:49:05;10.55;;;6.05;;
32200;SDS011;18701;45.588;5.288;2023-04-16T08:51:35;10.20;;;5.47;;
32200;SDS011;18701;45.588;5.288;2023-04-16T08:54:04;10.73;;;5.90;;
32200;SDS011;18701;45.588;5.288;2023-04-16T08:56:36;9.45;;;5.30;;
32200;SDS011;18701;45.588;5.288;2023-04-16T08:59:05;10.45;;;5.72;;
32200;SDS011;18701;45.588;5.288;2023-04-16T09:01:31;6.93;;;5.78;;
32200;SDS011;18701;45.588;5.288;2023-04-16T09:03:58;12.20;;;6.40;;
32200;SDS011;18701;45.588;5.288;2023-04-16T09:06:27;14.40;;;6.22;;
32200;SDS011;18701;45.588;5.288;2023-04-16T09:08:53;10.38;;;5.47;;
32200;SDS011;18701;45.588;5.288;2023-04-16T09:11:22;10.05;;;5.63;;
32200;SDS011;18701;45.588;5.288;2023-04-16T09:13:48;10.15;;;5.10;;
32200;SDS011;18701;45.588;5.288;2023-04-16T09:16:13;12.43;;;5.85;;
32200;SDS011;18701;45.588;5.288;2023-04-16T09:18:39;12.00;;;5.80;;
32200;SDS011;18701;45.588;5.288;2023-04-16T09:21:06;10.25;;;6.15;;
32200;SDS011;18701;45.588;5.288;2023-04-16T09:23:34;10.40;;;5.65;;
32200;SDS011;18701;45.588;5.288;2023-04-16T09:26:03;12.32;;;5.50;;
32200;SDS011;18701;45.588;5.288;2023-04-16T09:28:38;11.05;;;5.82;;
32200;SDS011;18701;45.588;5.288;2023-04-16T09:31:09;11.82;;;5.05;;
32200;SDS011;18701;45.588;5.288;2023-04-16T09:33:35;9.60;;;5.40;;
32200;SDS011;18701;45.588;5.288;2023-04-16T09:36:01;11.52;;;5.20;;
32200;SDS011;18701;45.588;5.288;2023-04-16T09:38:40;10.38;;;5.13;;
32200;SDS011;18701;45.588;5.288;2023-04-16T09:41:11;9.70;;;5.80;;
32200;SDS011;18701;45.588;5.288;2023-04-16T09:43:40;14.68;;;6.18;;
32200;SDS011;18701;45.588;5.288;2023-04-16T09:46:06;8.07;;;4.63;;
32200;SDS011;18701;45.588;5.288;2023-04-16T09:48:36;8.75;;;5.03;;
32200;SDS011;18701;45.588;5.288;2023-04-16T09:51:02;8.00;;;4.88;;
32200;SDS011;18701;45.588;5.288;2023-04-16T09:53:30;7.53;;;4.85;;
32200;SDS011;18701;45.588;5.288;2023-04-16T09:55:56;9.10;;;4.32;;
32200;SDS011;18701;45.588;5.288;2023-04-16T09:58:23;12.15;;;5.60;;
32200;SDS011;18701;45.588;5.288;2023-04-16T10:00:54;8.50;;;5.05;;
32200;SDS011;18701;45.588;5.288;2023-04-16T10:03:41;13.45;;;4.72;;
32200;SDS011;18701;45.588;5.288;2023-04-16T10:06:13;9.02;;;4.95;;
32200;SDS011;18701;45.588;5.288;2023-04-16T10:08:46;18.63;;;7.63;;
32200;SDS011;18701;45.588;5.288;2023-04-16T10:11:17;7.55;;;5.43;;
32200;SDS011;18701;45.588;5.288;2023-04-16T10:13:43;8.98;;;5.82;;
32200;SDS011;18701;45.588;5.288;2023-04-16T10:16:09;8.68;;;4.97;;
32200;SDS011;18701;45.588;5.288;2023-04-16T10:18:36;10.00;;;5.05;;
32200;SDS011;18701;45.588;5.288;2023-04-16T10:21:03;12.60;;;5.05;;
32200;SDS011;18701;45.588;5.288;2023-04-16T10:23:29;5.88;;;4.55;;
32200;SDS011;18701;45.588;5.288;2023-04-16T10:25:55;16.08;;;4.88;;
32200;SDS011;18701;45.588;5.288;2023-04-16T10:28:22;6.80;;;4.35;;
32200;SDS011;18701;45.588;5.288;2023-04-16T10:30:49;7.45;;;4.38;;
32200;SDS011;18701;45.588;5.288;2023-04-16T10:33:22;12.23;;;4.68;;
32200;SDS011;18701;45.588;5.288;2023-04-16T10:36:05;8.38;;;4.55;;
32200;SDS011;18701;45.588;5.288;2023-04-16T10:38:32;9.95;;;4.55;;
32200;SDS011;18701;45.588;5.288;2023-04-16T10:41:00;7.43;;;4.80;;
32200;SDS011;18701;45.588;5.288;2023-04-16T10:43:32;6.70;;;3.75;;
32200;SDS011;18701;45.588;5.288;2023-04-16T10:48:54;6.50;;;4.20;;
32200;SDS011;18701;45.588;5.288;2023-04-16T10:56:43;10.05;;;4.22;;
32200;SDS011;18701;45.588;5.288;2023-04-16T10:59:10;8.95;;;4.13;;
32200;SDS011;18701;45.588;5.288;2023-04-16T11:01:38;8.00;;;4.93;;
32200;SDS011;18701;45.588;5.288;2023-04-16T11:17:36;9.63;;;4.93;;
32200;SDS011;18701;45.588;5.288;2023-04-16T11:20:03;6.60;;;4.90;;
32200;SDS011;18701;45.588;5.288;2023-04-16T11:22:34;13.18;;;5.20;;
32200;SDS011;18701;45.588;5.288;2023-04-16T11:25:03;9.20;;;5.00;;
32200;SDS011;18701;45.588;5.288;2023-04-16T11:27:29;11.90;;;5.53;;
32200;SDS011;18701;45.588;5.288;2023-04-16T11:29:59;8.85;;;5.80;;
32200;SDS011;18701;45.588;5.288;2023-04-16T11:32:26;7.72;;;6.05;;
32200;SDS011;18701;45.588;5.288;2023-04-16T11:34:52;9.43;;;5.68;;
32200;SDS011;18701;45.588;5.288;2023-04-16T11:37:19;12.48;;;5.43;;
32200;SDS011;18701;45.588;5.288;2023-04-16T11:39:49;8.68;;;5.57;;
32200;SDS011;18701;45.588;5.288;2023-04-16T11:42:22;9.93;;;6.25;;
32200;SDS011;18701;45.588;5.288;2023-04-16T11:44:54;12.27;;;6.78;;
32200;SDS011;18701;45.588;5.288;2023-04-16T11:47:23;14.18;;;6.45;;
32200;SDS011;18701;45.588;5.288;2023-04-16T11:49:49;11.18;;;6.50;;
32200;SDS011;18701;45.588;5.288;2023-04-16T11:52:27;16.48;;;6.85;;
32200;SDS011;18701;45.588;5.288;2023-04-16T11:54:55;10.20;;;6.47;;
32200;SDS011;18701;45.588;5.288;2023-04-16T11:57:24;12.43;;;6.57;;
32200;SDS011;18701;45.588;5.288;2023-04-16T11:59:51;10.05;;;6.65;;
32200;SDS011;18701;45.588;5.288;2023-04-16T12:02:17;12.02;;;7.00;;
32200;SDS011;18701;45.588;5.288;2023-04-16T12:07:58;15.47;;;7.20;;
32200;SDS011;18701;45.588;5.288;2023-04-16T12:10:25;11.48;;;6.80;;
32200;SDS011;18701;45.588;5.288;2023-04-16T12:12:52;14.68;;;6.78;;
32200;SDS011;18701;45.588;5.288;2023-04-16T12:15:18;13.40;;;6.40;;
32200;SDS011;18701;45.588;5.288;2023-04-16T12:17:44;11.88;;;5.90;;
32200;SDS011;18701;45.588;5.288;2023-04-16T12:20:13;12.77;;;6.88;;
32200;SDS011;18701;45.588;5.288;2023-04-16T12:22:43;12.80;;;6.95;;
32200;SDS011;18701;45.588;5.288;2023-04-16T12:25:14;13.13;;;6.60;;
32200;SDS011;18701;45.588;5.288;2023-04-16T12:30:16;11.55;;;6.45;;
32200;SDS011;18701;45.588;5.288;2023-04-16T12:32:43;12.27;;;6.90;;
32200;SDS011;18701;45.588;5.288;2023-04-16T12:35:11;12.85;;;7.00;;
32200;SDS011;18701;45.588;5.288;2023-04-16T12:37:38;15.85;;;6.05;;
32200;SDS011;18701;45.588;5.288;2023-04-16T12:40:04;10.13;;;6.30;;
32200;SDS011;18701;45.588;5.288;2023-04-16T12:42:31;16.20;;;6.55;;
32200;SDS011;18701;45.588;5.288;2023-04-16T12:45:03;13.63;;;6.25;;
32200;SDS011;18701;45.588;5.288;2023-04-16T12:47:30;10.68;;;6.38;;
32200;SDS011;18701;45.588;5.288;2023-04-16T12:49:56;10.75;;;6.65;;
32200;SDS011;18701;45.588;5.288;2023-04-16T12:52:22;13.02;;;6.72;;
32200;SDS011;18701;45.588;5.288;2023-04-16T12:54:48;12.43;;;7.00;;
32200;SDS011;18701;45.588;5.288;2023-04-16T12:57:14;10.38;;;6.47;;
32200;SDS011;18701;45.588;5.288;2023-04-16T12:59:40;11.18;;;7.40;;
32200;SDS011;18701;45.588;5.288;2023-04-16T13:02:06;11.18;;;6.18;;
32200;SDS011;18701;45.588;5.288;2023-04-16T13:04:32;16.35;;;7.50;;
32200;SDS011;18701;45.588;5.288;2023-04-16T13:06:58;13.30;;;7.18;;
32200;SDS011;18701;45.588;5.288;2023-04-16T13:09:24;11.60;;;6.70;;
32200;SDS011;18701;45.588;5.288;2023-04-16T13:11:50;12.65;;;7.60;;
32200;SDS011;18701;45.588;5.288;2023-04-16T13:14:16;14.00;;;7.57;;
32200;SDS011;18701;45.588;5.288;2023-04-16T13:16:43;13.10;;;7.40;;
32200;SDS011;18701;45.588;5.288;2023-04-16T13:19:09;15.05;;;7.30;;
32200;SDS011;18701;45.588;5.288;2023-04-16T13:21:34;9.48;;;7.05;;
32200;SDS011;18701;45.588;5.288;2023-04-16T13:24:00;10.73;;;6.30;;
32200;SDS011;18701;45.588;5.288;2023-04-16T13:26:25;13.77;;;6.70;;
32200;SDS011;18701;45.588;5.288;2023-04-16T13:28:51;12.85;;;6.53;;
32200;SDS011;18701;45.588;5.288;2023-04-16T13:31:17;10.30;;;7.25;;
32200;SDS011;18701;45.588;5.288;2023-04-16T13:33:44;12.10;;;6.72;;
32200;SDS011;18701;45.588;5.288;2023-04-16T13:36:10;12.70;;;7.38;;
32200;SDS011;18701;45.588;5.288;2023-04-16T13:38:36;11.38;;;7.07;;
32200;SDS011;18701;45.588;5.288;2023-04-16T13:41:02;10.82;;;7.10;;
32200;SDS011;18701;45.588;5.288;2023-04-16T13:43:28;14.23;;;8.20;;
32200;SDS011;18701;45.588;5.288;2023-04-16T13:45:54;13.93;;;7.22;;
32200;SDS011;18701;45.588;5.288;2023-04-16T13:48:20;11.80;;;7.07;;
32200;SDS011;18701;45.588;5.288;2023-04-16T13:50:45;13.27;;;7.70;;
32200;SDS011;18701;45.588;5.288;2023-04-16T13:53:11;13.15;;;8.05;;
32200;SDS011;18701;45.588;5.288;2023-04-16T13:55:36;14.25;;;7.65;;
32200;SDS011;18701;45.588;5.288;2023-04-16T13:58:02;14.68;;;8.15;;
32200;SDS011;18701;45.588;5.288;2023-04-16T14:00:31;15.23;;;8.52;;
32200;SDS011;18701;45.588;5.288;2023-04-16T14:02:57;15.55;;;7.82;;
32200;SDS011;18701;45.588;5.288;2023-04-16T14:05:22;14.20;;;8.15;;
32200;SDS011;18701;45.588;5.288;2023-04-16T14:07:48;14.00;;;8.77;;
32200;SDS011;18701;45.588;5.288;2023-04-16T14:10:14;14.15;;;8.43;;
32200;SDS011;18701;45.588;5.288;2023-04-16T14:12:40;13.18;;;8.50;;
32200;SDS011;18701;45.588;5.288;2023-04-16T14:15:07;17.70;;;9.65;;
32200;SDS011;18701;45.588;5.288;2023-04-16T14:17:38;16.67;;;9.57;;
32200;SDS011;18701;45.588;5.288;2023-04-16T14:20:05;16.83;;;9.45;;
32200;SDS011;18701;45.588;5.288;2023-04-16T14:22:31;13.70;;;9.32;;
32200;SDS011;18701;45.588;5.288;2023-04-16T14:24:57;17.17;;;9.55;;
32200;SDS011;18701;45.588;5.288;2023-04-16T14:27:23;18.00;;;9.10;;
32200;SDS011;18701;45.588;5.288;2023-04-16T14:29:48;16.75;;;8.93;;
32200;SDS011;18701;45.588;5.288;2023-04-16T14:32:14;15.18;;;9.73;;
32200;SDS011;18701;45.588;5.288;2023-04-16T14:34:40;17.83;;;9.40;;
32200;SDS011;18701;45.588;5.288;2023-04-16T14:37:06;15.93;;;9.18;;
32200;SDS011;18701;45.588;5.288;2023-04-16T14:39:31;16.23;;;9.70;;
32200;SDS011;18701;45.588;5.288;2023-04-16T14:41:57;21.38;;;10.02;;
32200;SDS011;18701;45.588;5.288;2023-04-16T14:44:23;20.05;;;9.95;;
32200;SDS011;18701;45.588;5.288;2023-04-16T14:46:48;15.73;;;8.90;;
32200;SDS011;18701;45.588;5.288;2023-04-16T14:49:14;16.83;;;8.43;;
32200;SDS011;18701;45.588;5.288;2023-04-16T14:51:40;16.50;;;9.45;;
32200;SDS011;18701;45.588;5.288;2023-04-16T14:54:06;24.20;;;10.65;;
32200;SDS011;18701;45.588;5.288;2023-04-16T14:56:31;16.73;;;10.20;;
32200;SDS011;18701;45.588;5.288;2023-04-16T14:58:57;21.25;;;10.60;;
32200;SDS011;18701;45.588;5.288;2023-04-16T15:01:23;20.95;;;11.35;;
32200;SDS011;18701;45.588;5.288;2023-04-16T15:03:48;20.35;;;10.35;;